Darstellungsparameter: Aktuell verwendete Einstellungen:
Skalierung der Graphiken ... ?
xyx+y,   Skalierungsfaktor:      Skalierung: Modus: x, Faktor: 1
Darstellungszeitraum ... ?
Vom - - bis: - -   Zeitraum: 21.08.2016 - 21.08.2016
Min/Max/Avg-Anzeige ... ?
Zeige MMA aktuell
Zeige MMA Monat
Zeige MMA alles
Zeige --A aktuell
Zeige --A Monat
Zeige --A alles
Keine MMA-Anzeige
MMA:
Keine MMA-Graphiken
MMA-Basis: 21.08.2016 - 21.08.2016
Quicknavigation für Darstellung... ?
Tage:      1T, 2T, 3T, 5T -1T -2T -3T -5T +1T +2T +3T +5T
Wochen: 1W, 2W, 3W -1W -2W -3W +1W +2W +3W
Monate: 1M, 3M, 6M -1M -3M -6M +1M +3M +6M
Jahre:    1J, 3J, 5J, 10J -1J -3J -5J -10J +1J +3J +5J +10J
Nutze für die Darstellung ... ?
Originaldaten oder Mittelwerte auf ...
Stundenbasis Tagesbasis Wochenbasis
Monatsbasis Jahresbasis      Datenbasis: Original-Daten
Darstellen als:
Statistik (Auto) Statistik J:M      Darstellung:
Zur Graphik,    zurück zur Übersicht aller Sensoren.
 
Tabellarische Datenbersicht: ?
 
Sensor: Nr:Datum:Temp:Feuchte:Taupunkt:
Aussen-T/F 1 21-08-2016 00:00:00 15.5 C 89 % 13.7 C
2 21-08-2016 00:05:00 15.4 C 89 % 13.6 C
3 21-08-2016 00:10:00 15.4 C 90 % 13.77 C
4 21-08-2016 00:15:00 15.4 C 90 % 13.77 C
5 21-08-2016 00:20:00 15.4 C 90 % 13.77 C
6 21-08-2016 00:25:00 15.4 C 90 % 13.77 C
7 21-08-2016 00:30:00 15.3 C 90 % 13.67 C
8 21-08-2016 00:35:00 15.3 C 90 % 13.67 C
9 21-08-2016 00:40:00 15.3 C 90 % 13.67 C
10 21-08-2016 00:45:00 15.2 C 90 % 13.57 C
11 21-08-2016 00:50:00 15.2 C 90 % 13.57 C
12 21-08-2016 00:55:00 15.2 C 91 % 13.74 C
13 21-08-2016 01:00:00 15.1 C 91 % 13.64 C
14 21-08-2016 01:05:00 15.1 C 91 % 13.64 C
15 21-08-2016 01:10:00 15.1 C 91 % 13.64 C
16 21-08-2016 01:15:00 15.1 C 91 % 13.64 C
17 21-08-2016 01:20:00 15.1 C 91 % 13.64 C
18 21-08-2016 01:25:00 15 C 91 % 13.54 C
19 21-08-2016 01:30:00 14.9 C 92 % 13.61 C
20 21-08-2016 01:35:00 14.9 C 92 % 13.61 C
21 21-08-2016 01:40:00 14.8 C 92 % 13.51 C
22 21-08-2016 01:45:00 14.8 C 92 % 13.51 C
23 21-08-2016 01:50:00 14.8 C 92 % 13.51 C
24 21-08-2016 01:55:00 14.8 C 92 % 13.51 C
25 21-08-2016 02:00:00 14.8 C 92 % 13.51 C
Sensor: Nr:Datum:Temp:Feuchte:Taupunkt:
Aussen-T/F 26 21-08-2016 02:05:00 14.9 C 92 % 13.61 C
27 21-08-2016 02:10:00 14.9 C 92 % 13.61 C
28 21-08-2016 02:15:00 14.9 C 92 % 13.61 C
29 21-08-2016 02:20:00 14.9 C 92 % 13.61 C
30 21-08-2016 02:25:00 14.8 C 92 % 13.51 C
31 21-08-2016 02:30:00 14.8 C 92 % 13.51 C
32 21-08-2016 02:35:00 14.8 C 93 % 13.68 C
33 21-08-2016 02:40:00 14.9 C 93 % 13.78 C
34 21-08-2016 02:45:00 14.9 C 93 % 13.78 C
35 21-08-2016 02:50:00 14.9 C 93 % 13.78 C
36 21-08-2016 02:55:00 14.9 C 93 % 13.78 C
37 21-08-2016 03:00:00 14.9 C 93 % 13.78 C
38 21-08-2016 03:05:00 14.9 C 92 % 13.61 C
39 21-08-2016 03:10:00 14.8 C 92 % 13.51 C
40 21-08-2016 03:15:00 14.8 C 92 % 13.51 C
41 21-08-2016 03:20:00 14.8 C 92 % 13.51 C
42 21-08-2016 03:25:00 14.7 C 92 % 13.41 C
43 21-08-2016 03:30:00 14.7 C 92 % 13.41 C
44 21-08-2016 03:35:00 14.6 C 92 % 13.32 C
45 21-08-2016 03:40:00 14.6 C 92 % 13.32 C
46 21-08-2016 03:45:00 14.6 C 92 % 13.32 C
47 21-08-2016 03:50:00 14.6 C 92 % 13.32 C
48 21-08-2016 03:55:00 14.7 C 93 % 13.58 C
49 21-08-2016 04:00:00 14.7 C 93 % 13.58 C
50 21-08-2016 04:05:00 14.9 C 92 % 13.61 C
Sensor: Nr:Datum:Temp:Feuchte:Taupunkt:
Aussen-T/F 51 21-08-2016 04:10:00 15.1 C 92 % 13.81 C
52 21-08-2016 04:15:00 15.2 C 91 % 13.74 C
53 21-08-2016 04:20:00 15.3 C 91 % 13.84 C
54 21-08-2016 04:25:00 15.3 C 90 % 13.67 C
55 21-08-2016 04:30:00 15.2 C 90 % 13.57 C
56 21-08-2016 04:35:00 15.1 C 90 % 13.47 C
57 21-08-2016 04:40:00 14.8 C 89 % 13.01 C
58 21-08-2016 04:45:00 14.7 C 90 % 13.08 C
59 21-08-2016 04:50:00 14.6 C 91 % 13.15 C
60 21-08-2016 04:55:00 14.4 C 91 % 12.95 C
61 21-08-2016 05:00:00 14.3 C 91 % 12.85 C
62 21-08-2016 05:05:00 14.2 C 92 % 12.92 C
63 21-08-2016 05:10:00 14.2 C 92 % 12.92 C
64 21-08-2016 05:15:00 14.2 C 92 % 12.92 C
65 21-08-2016 05:20:00 14.1 C 92 % 12.82 C
66 21-08-2016 05:25:00 14.1 C 92 % 12.82 C
67 21-08-2016 05:30:00 14.1 C 93 % 12.99 C
68 21-08-2016 05:35:00 14 C 93 % 12.89 C
69 21-08-2016 05:40:00 13.9 C 93 % 12.79 C
70 21-08-2016 05:45:00 13.9 C 93 % 12.79 C
71 21-08-2016 05:50:00 13.8 C 93 % 12.69 C
72 21-08-2016 05:55:00 13.8 C 93 % 12.69 C
73 21-08-2016 06:00:00 13.9 C 94 % 12.95 C
74 21-08-2016 06:05:00 13.9 C 94 % 12.95 C
75 21-08-2016 06:10:00 13.9 C 94 % 12.95 C
Sensor: Nr:Datum:Temp:Feuchte:Taupunkt:
Aussen-T/F 76 21-08-2016 06:15:00 13.9 C 94 % 12.95 C
77 21-08-2016 06:20:00 13.9 C 94 % 12.95 C
78 21-08-2016 06:25:00 13.8 C 94 % 12.85 C
79 21-08-2016 06:30:00 13.8 C 94 % 12.85 C
80 21-08-2016 06:35:00 13.7 C 94 % 12.75 C
81 21-08-2016 06:40:00 13.7 C 94 % 12.75 C
82 21-08-2016 06:45:00 13.7 C 94 % 12.75 C
83 21-08-2016 06:50:00 13.7 C 94 % 12.75 C
84 21-08-2016 06:55:00 13.7 C 94 % 12.75 C
85 21-08-2016 07:00:00 13.8 C 94 % 12.85 C
86 21-08-2016 07:05:00 13.8 C 94 % 12.85 C
87 21-08-2016 07:10:00 13.9 C 94 % 12.95 C
88 21-08-2016 07:15:00 13.9 C 94 % 12.95 C
89 21-08-2016 07:20:00 13.9 C 94 % 12.95 C
90 21-08-2016 07:25:00 14 C 94 % 13.05 C
91 21-08-2016 07:30:00 14 C 94 % 13.05 C
92 21-08-2016 07:35:00 14 C 94 % 13.05 C
93 21-08-2016 07:40:00 14.1 C 95 % 13.31 C
94 21-08-2016 07:45:00 14.3 C 95 % 13.51 C
95 21-08-2016 07:50:00 14.5 C 95 % 13.71 C
96 21-08-2016 07:55:00 14.6 C 94 % 13.65 C
97 21-08-2016 08:00:00 14.7 C 93 % 13.58 C
98 21-08-2016 08:05:00 14.8 C 92 % 13.51 C
99 21-08-2016 08:10:00 14.9 C 91 % 13.44 C
100 21-08-2016 08:15:00 15 C 90 % 13.37 C
Sensor: Nr:Datum:Temp:Feuchte:Taupunkt:
Aussen-T/F 101 21-08-2016 08:20:00 15.2 C 90 % 13.57 C
102 21-08-2016 08:25:00 15.3 C 89 % 13.5 C
103 21-08-2016 08:30:00 15.3 C 88 % 13.33 C
104 21-08-2016 08:35:00 15.4 C 87 % 13.25 C
105 21-08-2016 08:40:00 15.5 C 86 % 13.17 C
106 21-08-2016 08:45:00 15.6 C 86 % 13.27 C
107 21-08-2016 08:50:00 15.7 C 86 % 13.37 C
108 21-08-2016 08:55:00 15.7 C 85 % 13.19 C
109 21-08-2016 09:00:00 15.7 C 86 % 13.37 C
110 21-08-2016 09:05:00 15.8 C 85 % 13.28 C
111 21-08-2016 09:10:00 15.8 C 84 % 13.1 C
112 21-08-2016 09:15:00 16 C 85 % 13.48 C
113 21-08-2016 09:20:00 16.2 C 83 % 13.31 C
114 21-08-2016 09:25:00 16.4 C 82 % 13.32 C
115 21-08-2016 09:30:00 16.6 C 81 % 13.33 C
116 21-08-2016 09:35:00 16.7 C 81 % 13.43 C
117 21-08-2016 09:40:00 16.7 C 81 % 13.43 C
118 21-08-2016 09:45:00 16.7 C 81 % 13.43 C
119 21-08-2016 09:50:00 16.7 C 81 % 13.43 C
120 21-08-2016 09:55:00 16.7 C 81 % 13.43 C
121 21-08-2016 10:00:00 16.7 C 80 % 13.23 C
122 21-08-2016 10:05:00 16.7 C 80 % 13.23 C
123 21-08-2016 10:10:00 16.8 C 81 % 13.52 C
124 21-08-2016 10:15:00 16.9 C 81 % 13.62 C
125 21-08-2016 10:20:00 17 C 80 % 13.53 C
Sensor: Nr:Datum:Temp:Feuchte:Taupunkt:
Aussen-T/F 126 21-08-2016 10:25:00 17.1 C 79 % 13.43 C
127 21-08-2016 10:30:00 17.1 C 78 % 13.24 C
128 21-08-2016 10:35:00 17.1 C 78 % 13.24 C
129 21-08-2016 10:40:00 17.1 C 78 % 13.24 C
130 21-08-2016 10:45:00 17.1 C 78 % 13.24 C
131 21-08-2016 10:50:00 17.2 C 77 % 13.14 C
132 21-08-2016 10:55:00 17.2 C 76 % 12.94 C
133 21-08-2016 11:00:00 17.3 C 77 % 13.23 C
134 21-08-2016 11:05:00 17.4 C 78 % 13.53 C
135 21-08-2016 11:10:00 17.6 C 78 % 13.72 C
136 21-08-2016 11:15:00 17.7 C 76 % 13.42 C
137 21-08-2016 11:20:00 17.8 C 76 % 13.52 C
138 21-08-2016 11:25:00 17.9 C 75 % 13.41 C
139 21-08-2016 11:30:00 18.1 C 74 % 13.4 C
140 21-08-2016 11:35:00 18.1 C 74 % 13.4 C
141 21-08-2016 11:40:00 18.1 C 75 % 13.6 C
142 21-08-2016 11:45:00 18.1 C 76 % 13.81 C
143 21-08-2016 11:50:00 18.2 C 75 % 13.7 C
144 21-08-2016 11:55:00 18.1 C 75 % 13.6 C
145 21-08-2016 12:00:00 18.1 C 74 % 13.4 C
146 21-08-2016 12:05:00 18.1 C 73 % 13.19 C
147 21-08-2016 12:10:00 18.1 C 72 % 12.98 C
148 21-08-2016 12:15:00 18.1 C 72 % 12.98 C
149 21-08-2016 12:20:00 18.1 C 73 % 13.19 C
150 21-08-2016 12:25:00 18.1 C 73 % 13.19 C
Sensor: Nr:Datum:Temp:Feuchte:Taupunkt:
Aussen-T/F 151 21-08-2016 12:30:00 18.1 C 74 % 13.4 C
152 21-08-2016 12:35:00 18.2 C 73 % 13.28 C
153 21-08-2016 12:40:00 18.3 C 73 % 13.38 C
154 21-08-2016 12:45:00 18.3 C 74 % 13.59 C
155 21-08-2016 12:50:00 18.4 C 73 % 13.48 C
156 21-08-2016 12:55:00 18.6 C 71 % 13.24 C
157 21-08-2016 13:00:00 18.7 C 71 % 13.34 C
158 21-08-2016 13:05:00 18.8 C 73 % 13.86 C
159 21-08-2016 13:10:00 18.9 C 71 % 13.53 C
160 21-08-2016 13:15:00 19.1 C 71 % 13.72 C
161 21-08-2016 13:20:00 19.2 C 71 % 13.82 C
162 21-08-2016 13:25:00 19.3 C 70 % 13.69 C
163 21-08-2016 13:30:00 19.2 C 71 % 13.82 C
164 21-08-2016 13:35:00 18.9 C 69 % 13.09 C
165 21-08-2016 13:40:00 18.8 C 72 % 13.65 C
166 21-08-2016 13:45:00 18.9 C 72 % 13.74 C
167 21-08-2016 13:50:00 19.1 C 73 % 14.15 C
168 21-08-2016 13:55:00 19.2 C 71 % 13.82 C
169 21-08-2016 14:00:00 19.4 C 71 % 14.01 C
170 21-08-2016 14:05:00 19.6 C 69 % 13.76 C
171 21-08-2016 14:10:00 19.7 C 70 % 14.08 C
172 21-08-2016 14:15:00 19.8 C 68 % 13.73 C
173 21-08-2016 14:20:00 19.7 C 70 % 14.08 C
174 21-08-2016 14:25:00 19.6 C 69 % 13.76 C
175 21-08-2016 14:30:00 19.7 C 69 % 13.86 C
Sensor: Nr:Datum:Temp:Feuchte:Taupunkt:
Aussen-T/F 176 21-08-2016 14:35:00 19.9 C 68 % 13.82 C
177 21-08-2016 14:40:00 20.1 C 68 % 14.01 C
178 21-08-2016 14:45:00 20.2 C 67 % 13.88 C
179 21-08-2016 14:50:00 20.2 C 66 % 13.65 C
180 21-08-2016 14:55:00 20.2 C 67 % 13.88 C
181 21-08-2016 15:00:00 20.1 C 68 % 14.01 C
182 21-08-2016 15:05:00 19.9 C 67 % 13.59 C
183 21-08-2016 15:10:00 19.8 C 69 % 13.95 C
184 21-08-2016 15:15:00 19.7 C 69 % 13.86 C
185 21-08-2016 15:20:00 19.6 C 73 % 14.63 C
186 21-08-2016 15:25:00 19.5 C 73 % 14.53 C
187 21-08-2016 15:30:00 19.4 C 69 % 13.57 C
188 21-08-2016 15:35:00 19.4 C 67 % 13.12 C
189 21-08-2016 15:40:00 19.4 C 69 % 13.57 C
190 21-08-2016 15:45:00 19.6 C 67 % 13.31 C
191 21-08-2016 15:50:00 19.8 C 68 % 13.73 C
192 21-08-2016 15:55:00 20.3 C 66 % 13.74 C
193 21-08-2016 16:00:00 20.6 C 64 % 13.55 C
194 21-08-2016 16:05:00 20.7 C 62 % 13.16 C
195 21-08-2016 16:10:00 20.6 C 62 % 13.07 C
196 21-08-2016 16:15:00 20.3 C 63 % 13.03 C
197 21-08-2016 16:20:00 20.3 C 63 % 13.03 C
198 21-08-2016 16:25:00 20.2 C 63 % 12.94 C
199 21-08-2016 16:30:00 20.2 C 63 % 12.94 C
200 21-08-2016 16:35:00 20.2 C 65 % 13.41 C
Sensor: Nr:Datum:Temp:Feuchte:Taupunkt:
Aussen-T/F 201 21-08-2016 16:40:00 20.3 C 65 % 13.51 C
202 21-08-2016 16:45:00 20.3 C 64 % 13.27 C
203 21-08-2016 16:50:00 20.2 C 65 % 13.41 C
204 21-08-2016 16:55:00 20.1 C 68 % 14.01 C
205 21-08-2016 17:00:00 19.9 C 68 % 13.82 C
206 21-08-2016 17:05:00 19.9 C 69 % 14.05 C
207 21-08-2016 17:10:00 20 C 66 % 13.46 C
208 21-08-2016 17:15:00 20 C 68 % 13.92 C
209 21-08-2016 17:20:00 20.2 C 67 % 13.88 C
210 21-08-2016 17:25:00 20.5 C 65 % 13.7 C
211 21-08-2016 17:30:00 20.7 C 65 % 13.89 C
212 21-08-2016 17:35:00 21 C 64 % 13.93 C
213 21-08-2016 17:40:00 21.4 C 63 % 14.07 C
214 21-08-2016 17:45:00 21.5 C 63 % 14.16 C
215 21-08-2016 17:50:00 21.6 C 60 % 13.51 C
216 21-08-2016 17:55:00 21.3 C 63 % 13.97 C
217 21-08-2016 18:00:00 21.2 C 62 % 13.63 C
218 21-08-2016 18:05:00 21.1 C 62 % 13.54 C
219 21-08-2016 18:10:00 21 C 63 % 13.69 C
220 21-08-2016 18:15:00 20.7 C 64 % 13.65 C
221 21-08-2016 18:20:00 20.3 C 65 % 13.51 C
222 21-08-2016 18:25:00 20.1 C 67 % 13.78 C
223 21-08-2016 18:30:00 19.8 C 67 % 13.5 C
224 21-08-2016 18:35:00 19.6 C 67 % 13.31 C
225 21-08-2016 18:40:00 19.6 C 69 % 13.76 C
Sensor: Nr:Datum:Temp:Feuchte:Taupunkt:
Aussen-T/F 226 21-08-2016 18:45:00 19.8 C 69 % 13.95 C
227 21-08-2016 18:50:00 20.2 C 68 % 14.11 C
228 21-08-2016 18:55:00 20.3 C 66 % 13.74 C
229 21-08-2016 19:00:00 20.1 C 68 % 14.01 C
230 21-08-2016 19:05:00 19.8 C 68 % 13.73 C
231 21-08-2016 19:10:00 19.5 C 70 % 13.89 C
232 21-08-2016 19:15:00 19.2 C 71 % 13.82 C
233 21-08-2016 19:20:00 19 C 71 % 13.63 C
234 21-08-2016 19:25:00 18.9 C 72 % 13.74 C
235 21-08-2016 19:30:00 18.8 C 73 % 13.86 C
236 21-08-2016 19:35:00 18.8 C 73 % 13.86 C
237 21-08-2016 19:40:00 18.7 C 73 % 13.76 C
238 21-08-2016 19:45:00 18.6 C 75 % 14.08 C
239 21-08-2016 19:50:00 18.6 C 73 % 13.67 C
240 21-08-2016 19:55:00 18.7 C 73 % 13.76 C
241 21-08-2016 20:00:00 18.8 C 73 % 13.86 C
242 21-08-2016 20:05:00 18.7 C 73 % 13.76 C
243 21-08-2016 20:10:00 18.6 C 74 % 13.88 C
244 21-08-2016 20:15:00 18.4 C 74 % 13.68 C
245 21-08-2016 20:20:00 18.3 C 76 % 14 C
246 21-08-2016 20:25:00 18.2 C 76 % 13.9 C
247 21-08-2016 20:30:00 18.1 C 77 % 14.01 C
248 21-08-2016 20:35:00 17.9 C 78 % 14.01 C
249 21-08-2016 20:40:00 17.8 C 78 % 13.91 C
250 21-08-2016 20:45:00 17.8 C 79 % 14.11 C
Sensor: Nr:Datum:Temp:Feuchte:Taupunkt:
Aussen-T/F 251 21-08-2016 20:50:00 17.7 C 79 % 14.01 C
252 21-08-2016 20:55:00 17.7 C 79 % 14.01 C
253 21-08-2016 21:00:00 17.6 C 79 % 13.92 C
254 21-08-2016 21:05:00 17.6 C 79 % 13.92 C
255 21-08-2016 21:10:00 17.6 C 79 % 13.92 C
256 21-08-2016 21:15:00 17.6 C 79 % 13.92 C
257 21-08-2016 21:20:00 17.5 C 79 % 13.82 C
258 21-08-2016 21:25:00 17.4 C 79 % 13.72 C
259 21-08-2016 21:30:00 17.4 C 80 % 13.92 C
260 21-08-2016 21:35:00 17.4 C 80 % 13.92 C
261 21-08-2016 21:40:00 17.4 C 79 % 13.72 C
262 21-08-2016 21:45:00 17.4 C 79 % 13.72 C
263 21-08-2016 21:50:00 17.3 C 79 % 13.63 C
264 21-08-2016 21:55:00 17.3 C 79 % 13.63 C
265 21-08-2016 22:00:00 17.3 C 79 % 13.63 C
266 21-08-2016 22:05:00 17.2 C 80 % 13.72 C
267 21-08-2016 22:10:00 17.1 C 80 % 13.62 C
268 21-08-2016 22:15:00 17.1 C 80 % 13.62 C
269 21-08-2016 22:20:00 17.1 C 80 % 13.62 C
270 21-08-2016 22:25:00 17.1 C 80 % 13.62 C
271 21-08-2016 22:30:00 17 C 80 % 13.53 C
272 21-08-2016 22:35:00 17 C 80 % 13.53 C
273 21-08-2016 22:40:00 16.9 C 80 % 13.43 C
274 21-08-2016 22:45:00 16.9 C 81 % 13.62 C
275 21-08-2016 22:50:00 16.9 C 81 % 13.62 C
Sensor: Nr:Datum:Temp:Feuchte:Taupunkt:
Aussen-T/F 276 21-08-2016 22:55:00 16.8 C 81 % 13.52 C
277 21-08-2016 23:00:00 16.8 C 81 % 13.52 C
278 21-08-2016 23:05:00 16.8 C 81 % 13.52 C
279 21-08-2016 23:10:00 16.8 C 82 % 13.71 C
280 21-08-2016 23:15:00 16.8 C 82 % 13.71 C
281 21-08-2016 23:20:00 16.8 C 82 % 13.71 C
282 21-08-2016 23:25:00 16.8 C 82 % 13.71 C
283 21-08-2016 23:30:00 16.8 C 82 % 13.71 C
284 21-08-2016 23:35:00 16.8 C 82 % 13.71 C
285 21-08-2016 23:40:00 16.8 C 82 % 13.71 C
286 21-08-2016 23:45:00 16.7 C 82 % 13.61 C
287 21-08-2016 23:50:00 16.7 C 82 % 13.61 C
288 21-08-2016 23:55:00 16.7 C 83 % 13.8 C

Legende:
   Min
   Max


Maximal/Minimal-Werte vom 21.08.2016 - 21.08.2016

Sensor Min Max Avg
Temp
(Aussen-T/F)
13.7 °C
21-08-2016  06:35:00
21.6 °C
21-08-2016  17:50:00
17.07 °C
Feuchte
(Aussen-T/F)
60 %
21-08-2016  17:50:00
95 %
21-08-2016  07:40:00
80.36 %
Taupunkt
(Aussen-T/F)
12.69 C
21-08-2016  05:50:00
14.63 C
21-08-2016  15:20:00
13.48 C

Die Daten stammen von einer Davis Vantage Pro 2 Wetter-Station und werden unter Linux mit der Software wview2wettercgi und aufbereitet. Alle Angaben erfolgen ohne Gewähr für ihre Vollständigkeit oder Richtigkeit.
Kontakt: Rainer Krienke krienke@uni-koblenz.de . Meine Webseiten an der Uni Koblenz oder privat.
Version: $Revision: 0.78 $